createdAt,value
2022-07-29T00:00:28.395Z,53.58
2022-07-29T00:00:59.312Z,53.78
2022-07-29T00:01:30.508Z,54.08
2022-07-29T00:02:01.020Z,53.98
2022-07-29T00:02:32.015Z,53.86
2022-07-29T00:03:02.579Z,53.96
2022-07-29T00:03:33.392Z,53.88
2022-07-29T00:04:04.219Z,53.96
2022-07-29T00:04:35.121Z,54.08
2022-07-29T00:05:05.675Z,54.16
2022-07-29T00:05:36.150Z,54.18
2022-07-29T00:06:07.078Z,53.88
2022-07-29T00:06:38.201Z,54.08
2022-07-29T00:07:08.641Z,54.18
2022-07-29T00:07:39.777Z,54.08
2022-07-29T00:08:12.518Z,54.06
2022-07-29T00:08:41.028Z,54.06
2022-07-29T00:09:11.958Z,54.16
2022-07-29T00:09:51.250Z,54.18
2022-07-29T00:10:15.083Z,54.28
2022-07-29T00:10:44.557Z,54.18
2022-07-29T00:11:15.470Z,53.96
2022-07-29T00:11:46.386Z,53.76
2022-07-29T00:12:17.315Z,53.66
2022-07-29T00:12:48.457Z,53.86
2022-07-29T00:13:18.939Z,53.78
2022-07-29T00:13:51.236Z,53.76
2022-07-29T00:14:20.750Z,53.78
2022-07-29T00:14:51.761Z,53.88
2022-07-29T00:15:22.412Z,53.86
2022-07-29T00:15:52.897Z,53.88
2022-07-29T00:16:23.923Z,53.78
2022-07-29T00:16:54.723Z,53.76
2022-07-29T00:17:25.383Z,53.76
2022-07-29T00:17:56.290Z,53.76
2022-07-29T00:18:27.455Z,53.78
2022-07-29T00:19:01.910Z,53.96
2022-07-29T00:19:29.034Z,53.88
2022-07-29T00:20:00.021Z,53.98
2022-07-29T00:20:30.492Z,53.86
2022-07-29T00:21:01.411Z,54.18
2022-07-29T00:21:32.518Z,54.28
2022-07-29T00:22:03.017Z,54.08
2022-07-29T00:22:33.508Z,54.06
2022-07-29T00:23:04.482Z,54.06
2022-07-29T00:23:36.923Z,54.35
2022-07-29T00:24:06.124Z,54.28
2022-07-29T00:24:37.281Z,54.06
2022-07-29T00:25:07.789Z,54.06
2022-07-29T00:25:38.705Z,54.18
2022-07-29T00:26:09.622Z,54.28
2022-07-29T00:26:40.545Z,54.35
2022-07-29T00:27:11.425Z,54.16
2022-07-29T00:27:42.553Z,53.98
2022-07-29T00:28:13.042Z,54.16
2022-07-29T00:28:43.960Z,54.18
2022-07-29T00:29:33.663Z,53.96
2022-07-29T00:29:45.804Z,54.08
2022-07-29T00:30:16.935Z,54.06
2022-07-29T00:30:47.477Z,54.18
2022-07-29T00:31:17.997Z,54.06
2022-07-29T00:31:48.826Z,53.96
2022-07-29T00:32:19.439Z,54.08
2022-07-29T00:32:50.356Z,54.08
2022-07-29T00:33:21.522Z,54.18
2022-07-29T00:33:52.007Z,54.18
2022-07-29T00:34:22.934Z,54.18
2022-07-29T00:34:53.897Z,54.06
2022-07-29T00:35:24.833Z,53.88
2022-07-29T00:35:55.806Z,53.76
2022-07-29T00:36:26.448Z,53.88
2022-07-29T00:36:56.950Z,53.98
2022-07-29T00:37:27.857Z,53.96
2022-07-29T00:37:58.841Z,53.98
2022-07-29T00:38:29.834Z,54.06
2022-07-29T00:39:00.757Z,54.25
2022-07-29T00:39:31.838Z,54.28
2022-07-29T00:40:02.328Z,54.08
2022-07-29T00:40:32.831Z,53.96
2022-07-29T00:41:03.741Z,53.96
2022-07-29T00:41:34.662Z,53.98
2022-07-29T00:42:05.653Z,53.98
2022-07-29T00:42:36.819Z,53.96
2022-07-29T00:43:07.275Z,54.08
2022-07-29T00:43:38.217Z,54.08
2022-07-29T00:44:09.142Z,53.98
2022-07-29T00:44:40.141Z,54.25
2022-07-29T00:45:11.102Z,54.18
2022-07-29T00:45:42.271Z,54.38
2022-07-29T00:46:12.842Z,54.58
2022-07-29T00:46:43.378Z,54.48
2022-07-29T00:47:13.893Z,54.38
2022-07-29T00:47:44.383Z,54.08
2022-07-29T00:48:15.305Z,54.08
2022-07-29T00:48:46.451Z,54.18
2022-07-29T00:49:17.082Z,54.18
2022-07-29T00:49:47.787Z,54.06
2022-07-29T00:50:18.761Z,54.06
2022-07-29T00:50:49.762Z,53.98
2022-07-29T00:51:20.253Z,53.88
2022-07-29T00:51:51.357Z,53.88
2022-07-29T00:52:21.849Z,53.88
2022-07-29T00:52:52.825Z,53.88
2022-07-29T00:53:23.736Z,53.88
2022-07-29T00:53:54.637Z,53.86
2022-07-29T00:54:25.568Z,53.86
2022-07-29T00:54:56.663Z,53.96
2022-07-29T00:55:27.143Z,53.86
2022-07-29T00:55:58.126Z,53.98
2022-07-29T00:56:29.045Z,53.98
2022-07-29T00:57:00.065Z,53.96
2022-07-29T00:57:30.891Z,54.08
2022-07-29T00:58:01.554Z,53.88
2022-07-29T00:58:32.037Z,53.88
2022-07-29T00:59:03.019Z,53.98
2022-07-29T00:59:35.121Z,53.86
2022-07-29T01:00:04.496Z,53.96
2022-07-29T01:00:35.517Z,54.06
2022-07-29T01:01:06.165Z,54.08
2022-07-29T01:01:36.710Z,54.08
2022-07-29T01:02:07.267Z,53.98
2022-07-29T01:02:38.206Z,53.98
2022-07-29T01:03:08.726Z,54.06
2022-07-29T01:03:39.713Z,54.08
2022-07-29T01:04:10.404Z,54.06
2022-07-29T01:04:40.900Z,54.08
2022-07-29T01:05:11.875Z,54.38
2022-07-29T01:05:50.682Z,54.08
2022-07-29T01:06:14.802Z,54.16
2022-07-29T01:06:44.420Z,54.18
2022-07-29T01:07:14.912Z,54.08
2022-07-29T01:07:45.900Z,54.08
2022-07-29T01:08:16.832Z,54.08
2022-07-29T01:08:47.813Z,54.08
2022-07-29T01:09:18.728Z,54.06
2022-07-29T01:09:50.655Z,53.98
2022-07-29T01:10:20.556Z,54.28
2022-07-29T01:10:51.527Z,54.38
2022-07-29T01:11:22.466Z,54.38
2022-07-29T01:11:53.455Z,54.18
2022-07-29T01:12:24.554Z,54.18
2022-07-29T01:12:55.040Z,54.08
2022-07-29T01:13:25.955Z,54.08
2022-07-29T01:13:56.926Z,54.08
2022-07-29T01:14:27.857Z,53.98
2022-07-29T01:14:58.850Z,54.08
2022-07-29T01:15:29.540Z,54.08
2022-07-29T01:16:00.170Z,54.06
2022-07-29T01:16:30.685Z,54.08
2022-07-29T01:17:01.142Z,54.06
2022-07-29T01:17:32.058Z,54.08
2022-07-29T01:18:02.955Z,54.08
2022-07-29T01:18:34.207Z,54.08
2022-07-29T01:19:04.399Z,54.08
2022-07-29T01:19:35.333Z,54.08
2022-07-29T01:20:06.350Z,54.18
2022-07-29T01:20:36.839Z,54.08
2022-07-29T01:21:07.827Z,54.18
2022-07-29T01:21:39.008Z,54.16
2022-07-29T01:22:09.621Z,54.08
2022-07-29T01:22:40.081Z,54.18
2022-07-29T01:23:11.010Z,54.18
2022-07-29T01:23:42.004Z,54.16
2022-07-29T01:24:13.512Z,54.18
2022-07-29T01:24:43.792Z,54.06
2022-07-29T01:25:14.292Z,54.08
2022-07-29T01:25:44.772Z,54.08
2022-07-29T01:26:15.726Z,54.18
2022-07-29T01:26:47.687Z,54.18
2022-07-29T01:27:18.163Z,54.08
2022-07-29T01:27:48.246Z,54.06
2022-07-29T01:29:43.246Z,54.08
2022-07-29T01:30:14.740Z,54.06
2022-07-29T01:30:44.912Z,54.18
2022-07-29T01:31:25.060Z,54.08
2022-07-29T01:31:58.825Z,53.98
2022-07-29T01:32:28.391Z,54.08
2022-07-29T01:32:49.636Z,54.06
2022-07-29T01:33:19.107Z,54.08
2022-07-29T01:33:50.066Z,54.08
2022-07-29T01:34:21.193Z,54.08
2022-07-29T01:34:51.679Z,54.18
2022-07-29T01:35:22.176Z,54.18
2022-07-29T01:35:53.065Z,54.08
2022-07-29T01:36:24.035Z,54.18
2022-07-29T01:36:54.944Z,54.08
2022-07-29T01:37:26.137Z,54.18
2022-07-29T01:37:56.629Z,54.18
2022-07-29T01:38:27.546Z,54.16
2022-07-29T01:38:58.466Z,54.18
2022-07-29T01:39:29.440Z,54.18
2022-07-29T01:40:00.351Z,54.08
2022-07-29T01:40:31.565Z,54.06
2022-07-29T01:41:02.066Z,54.18
2022-07-29T01:41:33.067Z,54.18
2022-07-29T01:42:03.983Z,54.18
2022-07-29T01:42:34.912Z,54.08
2022-07-29T01:43:05.834Z,54.08
2022-07-29T01:43:36.945Z,54.08
2022-07-29T01:44:07.433Z,54.08
2022-07-29T01:44:38.096Z,54.08
2022-07-29T01:45:09.022Z,54.08
2022-07-29T01:45:39.901Z,54.08
2022-07-29T01:46:10.971Z,53.98
2022-07-29T01:46:41.714Z,54.08
2022-07-29T01:47:12.158Z,54.08
2022-07-29T01:47:43.117Z,54.18
2022-07-29T01:48:14.116Z,54.08
2022-07-29T01:48:45.201Z,54.06
2022-07-29T01:49:16.129Z,54.16
2022-07-29T01:49:46.982Z,54.18
2022-07-29T01:50:17.499Z,54.08
2022-07-29T01:50:47.921Z,54.18
2022-07-29T01:51:18.835Z,54.18
2022-07-29T01:51:49.857Z,54.08
2022-07-29T01:52:20.288Z,54.08
2022-07-29T01:52:51.398Z,54.18
2022-07-29T01:53:21.883Z,54.18
2022-07-29T01:53:52.808Z,54.08
2022-07-29T01:54:23.725Z,54.18
2022-07-29T01:54:54.647Z,54.08
2022-07-29T01:55:25.643Z,54.08
2022-07-29T01:55:56.754Z,54.18
2022-07-29T01:56:27.243Z,54.18
2022-07-29T01:56:58.228Z,54.18
2022-07-29T01:57:29.144Z,54.18
2022-07-29T01:58:00.092Z,54.18
2022-07-29T01:58:31.076Z,54.18
2022-07-29T01:59:02.186Z,54.18
2022-07-29T01:59:32.687Z,54.18
2022-07-29T02:00:03.606Z,54.18
2022-07-29T02:00:34.589Z,54.18
2022-07-29T02:01:05.073Z,54.18
2022-07-29T02:01:36.109Z,54.18
2022-07-29T02:02:06.962Z,54.28
2022-07-29T02:02:37.166Z,54.28
2022-07-29T02:03:08.156Z,54.18
2022-07-29T02:03:39.072Z,54.18
2022-07-29T02:04:09.981Z,54.18
2022-07-29T02:04:40.981Z,54.18
2022-07-29T02:05:11.654Z,54.28
2022-07-29T02:05:42.210Z,54.28
2022-07-29T02:06:13.125Z,54.25
2022-07-29T02:06:44.053Z,54.28
2022-07-29T02:07:15.057Z,54.18
2022-07-29T02:07:45.982Z,54.18
2022-07-29T02:08:17.168Z,54.18
2022-07-29T02:08:47.649Z,54.18
2022-07-29T02:09:18.574Z,54.18
2022-07-29T02:09:49.484Z,54.28
2022-07-29T02:10:20.396Z,54.18
2022-07-29T02:10:52.532Z,54.18
2022-07-29T02:11:21.997Z,54.18
2022-07-29T02:11:52.979Z,54.28
2022-07-29T02:12:23.965Z,54.18
2022-07-29T02:12:54.893Z,54.18
2022-07-29T02:13:25.803Z,54.28
2022-07-29T02:13:56.910Z,54.28
2022-07-29T02:14:27.391Z,54.18
2022-07-29T02:14:58.308Z,54.28
2022-07-29T02:15:29.295Z,54.28
2022-07-29T02:16:00.424Z,54.28
2022-07-29T02:16:31.011Z,54.38
2022-07-29T02:17:01.685Z,54.28
2022-07-29T02:17:32.175Z,54.28
2022-07-29T02:18:03.081Z,54.28
2022-07-29T02:18:34.048Z,54.28
2022-07-29T02:19:04.973Z,54.28
2022-07-29T02:19:35.956Z,54.28
2022-07-29T02:20:07.056Z,54.18
2022-07-29T02:20:37.514Z,54.28
2022-07-29T02:21:14.721Z,54.18
2022-07-29T02:21:39.358Z,54.28
2022-07-29T02:22:10.268Z,54.28
2022-07-29T02:22:41.466Z,54.28
2022-07-29T02:23:11.890Z,54.28
2022-07-29T02:23:50.374Z,54.28
2022-07-29T02:24:14.972Z,54.18
2022-07-29T02:24:44.174Z,54.28
2022-07-29T02:25:15.273Z,54.28
2022-07-29T02:25:45.765Z,54.18
2022-07-29T02:26:16.754Z,54.28
2022-07-29T02:26:47.702Z,54.18
2022-07-29T02:27:18.626Z,54.28
2022-07-29T02:27:49.752Z,54.28
2022-07-29T02:28:20.421Z,54.28
2022-07-29T02:28:50.917Z,54.28
2022-07-29T02:29:21.891Z,54.28
2022-07-29T02:29:52.876Z,54.28
2022-07-29T02:30:23.863Z,54.28
2022-07-29T02:30:54.863Z,54.28
2022-07-29T02:31:25.783Z,54.28
2022-07-29T02:31:56.282Z,54.28
2022-07-29T02:32:27.209Z,54.28
2022-07-29T02:32:58.118Z,54.38
2022-07-29T02:33:29.033Z,54.28
2022-07-29T02:33:59.949Z,54.41
2022-07-29T02:34:31.050Z,54.28
2022-07-29T02:35:01.505Z,54.28
2022-07-29T02:35:34.554Z,54.38
2022-07-29T02:36:03.265Z,54.38
2022-07-29T02:36:34.256Z,54.28
2022-07-29T02:37:05.175Z,54.38
2022-07-29T02:37:36.244Z,54.38
2022-07-29T02:38:06.714Z,54.38
2022-07-29T02:38:37.626Z,54.48
2022-07-29T02:39:10.562Z,54.48
2022-07-29T02:39:39.413Z,54.38
2022-07-29T02:40:10.418Z,54.38
2022-07-29T02:40:41.592Z,54.38
2022-07-29T02:41:12.067Z,54.28
2022-07-29T02:41:42.995Z,54.28
2022-07-29T02:42:13.980Z,54.28
2022-07-29T02:42:44.971Z,54.38
2022-07-29T02:43:15.928Z,54.38
2022-07-29T02:43:47.036Z,54.38
2022-07-29T02:44:17.887Z,54.38
2022-07-29T02:44:48.032Z,54.38
2022-07-29T02:45:18.940Z,54.28
2022-07-29T02:45:51.832Z,54.38
2022-07-29T02:46:28.594Z,54.38
2022-07-29T02:46:52.747Z,54.48
2022-07-29T02:47:22.445Z,54.41
2022-07-29T02:47:53.356Z,54.38
2022-07-29T02:48:24.333Z,54.38
2022-07-29T02:48:55.384Z,54.38
2022-07-29T02:49:26.193Z,54.38
2022-07-29T02:49:56.814Z,54.38
2022-07-29T02:50:27.742Z,54.41
2022-07-29T02:50:58.726Z,54.31
2022-07-29T02:51:41.442Z,54.28
2022-07-29T02:52:01.850Z,54.38
2022-07-29T02:52:31.268Z,54.28
2022-07-29T02:53:02.149Z,54.28
2022-07-29T02:53:33.113Z,54.38
2022-07-29T02:54:04.088Z,54.41
2022-07-29T02:54:35.003Z,54.38
2022-07-29T02:55:06.108Z,54.48
2022-07-29T02:55:36.597Z,54.38
2022-07-29T02:56:07.506Z,54.38
2022-07-29T02:56:38.464Z,54.38
2022-07-29T02:57:09.394Z,54.38
2022-07-29T02:57:54.095Z,54.38
2022-07-29T02:58:12.264Z,54.38
2022-07-29T02:58:41.698Z,54.38
2022-07-29T02:59:12.609Z,54.38
2022-07-29T02:59:43.522Z,54.38
2022-07-29T03:00:14.512Z,54.38
2022-07-29T03:00:45.624Z,54.38
2022-07-29T03:01:21.104Z,54.38
2022-07-29T03:01:48.099Z,54.38
2022-07-29T03:02:17.603Z,54.38
2022-07-29T03:02:48.132Z,54.38
2022-07-29T03:03:19.233Z,54.38
2022-07-29T03:03:49.715Z,54.38
2022-07-29T03:04:21.199Z,54.38
2022-07-29T03:04:51.388Z,54.35
2022-07-29T03:05:22.196Z,54.38
2022-07-29T03:05:53.185Z,54.38
2022-07-29T03:06:37.806Z,54.38
2022-07-29T03:06:55.798Z,54.50
2022-07-29T03:07:25.188Z,54.48
2022-07-29T03:07:56.175Z,54.38
2022-07-29T03:08:27.090Z,54.38
2022-07-29T03:08:58.255Z,54.48
2022-07-29T03:09:28.679Z,54.48
2022-07-29T03:09:59.683Z,54.38
2022-07-29T03:10:30.604Z,54.48
2022-07-29T03:11:01.591Z,54.48
2022-07-29T03:11:40.160Z,54.48
2022-07-29T03:12:04.491Z,54.48
2022-07-29T03:12:33.964Z,54.48
2022-07-29T03:13:04.877Z,54.48
2022-07-29T03:13:35.785Z,54.48
2022-07-29T03:14:06.746Z,54.48
2022-07-29T03:14:37.853Z,54.48
2022-07-29T03:15:08.332Z,54.48
2022-07-29T03:15:39.399Z,54.48
2022-07-29T03:16:09.890Z,54.58
2022-07-29T03:16:41.379Z,54.58
2022-07-29T03:17:11.002Z,54.48
2022-07-29T03:17:42.104Z,54.58
2022-07-29T03:18:12.575Z,54.48
2022-07-29T03:18:43.495Z,54.48
2022-07-29T03:19:14.454Z,54.48
2022-07-29T03:19:45.368Z,54.48
2022-07-29T03:20:16.273Z,54.58
2022-07-29T03:20:47.391Z,54.58
2022-07-29T03:21:17.880Z,54.48
2022-07-29T03:21:48.375Z,54.48
2022-07-29T03:22:19.408Z,54.48
2022-07-29T03:22:49.855Z,54.60
2022-07-29T03:23:20.772Z,54.58
2022-07-29T03:23:51.883Z,54.50
2022-07-29T03:24:22.368Z,54.48
2022-07-29T03:24:52.871Z,54.48
2022-07-29T03:25:23.798Z,54.48
2022-07-29T03:25:54.726Z,54.48
2022-07-29T03:26:25.266Z,54.48
2022-07-29T03:26:56.361Z,54.48
2022-07-29T03:27:26.856Z,54.60
2022-07-29T03:27:57.776Z,54.48
2022-07-29T03:28:28.768Z,54.58
2022-07-29T03:28:59.715Z,54.58
2022-07-29T03:29:33.994Z,54.48
2022-07-29T03:30:01.525Z,54.58
2022-07-29T03:30:32.239Z,54.48
2022-07-29T03:31:02.922Z,54.58
2022-07-29T03:31:33.883Z,54.48
2022-07-29T03:32:06.006Z,54.58
2022-07-29T03:32:35.234Z,54.50
2022-07-29T03:33:13.391Z,54.50
2022-07-29T03:33:37.825Z,54.58
2022-07-29T03:34:07.322Z,54.48
2022-07-29T03:34:38.317Z,54.58
2022-07-29T03:35:08.826Z,54.48
2022-07-29T03:35:39.997Z,54.58
2022-07-29T03:36:10.479Z,54.58
2022-07-29T03:36:41.462Z,54.58
2022-07-29T03:37:12.421Z,54.58
2022-07-29T03:37:43.342Z,54.58
2022-07-29T03:38:14.330Z,54.58
2022-07-29T03:38:45.493Z,54.58
2022-07-29T03:39:15.980Z,54.58
2022-07-29T03:39:46.963Z,54.58
2022-07-29T03:40:17.907Z,54.58
2022-07-29T03:40:48.893Z,54.58
2022-07-29T03:41:22.560Z,54.58
2022-07-29T03:41:50.365Z,54.60
2022-07-29T03:42:20.869Z,54.48
2022-07-29T03:42:51.360Z,54.58
2022-07-29T03:43:22.310Z,54.58
2022-07-29T03:43:53.227Z,54.58
2022-07-29T03:44:24.209Z,54.58
2022-07-29T03:44:55.370Z,54.60
2022-07-29T03:45:25.784Z,54.58
2022-07-29T03:45:56.824Z,54.60
2022-07-29T03:46:27.369Z,54.60
2022-07-29T03:46:58.113Z,54.58
2022-07-29T03:47:49.961Z,54.58
2022-07-29T03:48:01.401Z,54.58
2022-07-29T03:48:30.502Z,54.48
2022-07-29T03:49:01.532Z,54.58
2022-07-29T03:49:32.094Z,54.48
2022-07-29T03:50:03.083Z,54.48
2022-07-29T03:50:34.261Z,54.58
2022-07-29T03:51:04.713Z,54.58
2022-07-29T03:51:35.633Z,54.58
2022-07-29T03:52:06.541Z,54.58
2022-07-29T03:52:37.517Z,54.58
2022-07-29T03:53:08.498Z,54.58
2022-07-29T03:53:39.617Z,54.58
2022-07-29T03:54:10.454Z,54.60
2022-07-29T03:54:40.989Z,54.68
2022-07-29T03:55:11.978Z,54.71
2022-07-29T03:55:42.894Z,54.68
2022-07-29T03:56:13.877Z,54.58
2022-07-29T03:56:44.933Z,54.68
2022-07-29T03:57:15.369Z,54.58
2022-07-29T03:57:46.255Z,54.68
2022-07-29T03:58:17.236Z,54.58
2022-07-29T03:58:48.097Z,54.68
2022-07-29T03:59:19.033Z,54.68
2022-07-29T03:59:50.131Z,54.50
2022-07-29T04:00:20.664Z,54.58
2022-07-29T04:00:51.188Z,54.48
2022-07-29T04:01:22.163Z,54.58
2022-07-29T04:01:53.001Z,54.58
2022-07-29T04:02:27.331Z,54.58
2022-07-29T04:02:55.481Z,54.60
2022-07-29T04:03:25.047Z,54.58
2022-07-29T04:03:55.853Z,54.71
2022-07-29T04:04:26.496Z,54.58
2022-07-29T04:04:57.335Z,54.58
2022-07-29T04:05:28.536Z,54.58
2022-07-29T04:05:58.951Z,54.71
2022-07-29T04:06:29.953Z,54.68
2022-07-29T04:07:00.948Z,54.58
2022-07-29T04:07:31.921Z,54.68
2022-07-29T04:08:02.903Z,54.68
2022-07-29T04:08:34.093Z,54.71
2022-07-29T04:09:04.578Z,54.60
2022-07-29T04:09:35.599Z,54.68
2022-07-29T04:10:05.975Z,54.68
2022-07-29T04:10:36.918Z,54.58
2022-07-29T04:11:07.889Z,54.68
2022-07-29T04:12:03.511Z,54.68
2022-07-29T04:12:10.662Z,54.71
2022-07-29T04:12:40.100Z,54.68
2022-07-29T04:13:11.039Z,54.68
2022-07-29T04:13:42.040Z,54.68
2022-07-29T04:14:13.119Z,54.71
2022-07-29T04:14:43.275Z,54.71
2022-07-29T04:15:14.130Z,54.68
2022-07-29T04:15:45.199Z,54.68
2022-07-29T04:16:16.006Z,54.68
2022-07-29T04:16:46.434Z,54.71
2022-07-29T04:17:17.484Z,54.68
2022-07-29T04:17:47.989Z,54.68
2022-07-29T04:18:18.769Z,54.68
2022-07-29T04:18:49.676Z,54.71
2022-07-29T04:19:20.727Z,54.68
2022-07-29T04:19:51.273Z,54.68
2022-07-29T04:20:21.956Z,54.68
2022-07-29T04:20:52.448Z,54.71
2022-07-29T04:21:23.408Z,54.68
2022-07-29T04:21:54.462Z,54.78
2022-07-29T04:22:24.882Z,54.68
2022-07-29T04:22:55.634Z,54.78
2022-07-29T04:23:26.753Z,54.71
2022-07-29T04:23:57.252Z,54.68
2022-07-29T04:24:27.727Z,54.68
2022-07-29T04:25:03.362Z,54.68
2022-07-29T04:25:29.659Z,54.68
2022-07-29T04:26:00.843Z,54.71
2022-07-29T04:26:31.272Z,54.58
2022-07-29T04:27:02.231Z,54.68
2022-07-29T04:27:33.111Z,54.71
2022-07-29T04:28:04.156Z,54.68
2022-07-29T04:28:34.823Z,54.68
2022-07-29T04:29:05.971Z,54.71
2022-07-29T04:29:36.475Z,54.68
2022-07-29T04:30:08.994Z,54.68
2022-07-29T04:30:37.967Z,54.78
2022-07-29T04:31:08.928Z,54.80
2022-07-29T04:31:40.127Z,54.71
2022-07-29T04:32:10.622Z,54.71
2022-07-29T04:32:41.556Z,54.68
2022-07-29T04:33:12.402Z,54.78
2022-07-29T04:33:43.342Z,54.68
2022-07-29T04:34:14.670Z,54.68
2022-07-29T04:34:45.364Z,54.68
2022-07-29T04:35:15.840Z,54.68
2022-07-29T04:35:50.050Z,54.68
2022-07-29T04:36:26.886Z,54.68
2022-07-29T04:36:49.578Z,54.68
2022-07-29T04:37:19.206Z,54.71
2022-07-29T04:37:49.658Z,54.68
2022-07-29T04:38:20.568Z,54.68
2022-07-29T04:38:51.507Z,54.68
2022-07-29T04:39:23.350Z,54.68
2022-07-29T04:39:53.355Z,54.71
2022-07-29T04:40:24.478Z,54.68
2022-07-29T04:40:54.936Z,54.68
2022-07-29T04:41:32.549Z,54.68
2022-07-29T04:41:56.525Z,54.68
2022-07-29T04:42:27.525Z,54.68
2022-07-29T04:42:58.067Z,54.71
2022-07-29T04:43:28.640Z,54.68
2022-07-29T04:43:59.523Z,54.68
2022-07-29T04:44:30.390Z,54.71
2022-07-29T04:45:01.483Z,54.68
2022-07-29T04:45:32.361Z,54.68
2022-07-29T04:46:02.930Z,54.68
2022-07-29T04:46:33.585Z,54.68
2022-07-29T04:47:04.187Z,54.68
2022-07-29T04:47:35.131Z,54.58
2022-07-29T04:48:05.617Z,54.58
2022-07-29T04:48:36.796Z,54.71
2022-07-29T04:49:07.354Z,54.68
2022-07-29T04:49:37.900Z,54.68
2022-07-29T04:50:08.911Z,54.68
2022-07-29T04:50:39.405Z,54.71
2022-07-29T04:51:10.335Z,54.68
2022-07-29T04:51:41.545Z,54.68
2022-07-29T04:52:12.003Z,54.60
2022-07-29T04:52:42.907Z,54.58
2022-07-29T04:53:13.769Z,54.58
2022-07-29T04:53:44.751Z,54.58
2022-07-29T04:54:15.934Z,54.68
2022-07-29T04:54:46.754Z,54.80
2022-07-29T04:55:17.177Z,54.78
2022-07-29T04:55:48.183Z,54.58
2022-07-29T04:56:18.629Z,54.68
2022-07-29T04:56:49.542Z,54.58
2022-07-29T04:57:20.410Z,54.58
2022-07-29T04:57:51.567Z,54.68
2022-07-29T04:58:22.071Z,54.80
2022-07-29T04:58:53.038Z,54.90
2022-07-29T04:59:23.946Z,54.88
2022-07-29T04:59:54.912Z,54.80
2022-07-29T05:00:28.005Z,54.88
2022-07-29T05:00:56.723Z,54.88
2022-07-29T05:01:27.672Z,54.97
2022-07-29T05:01:58.253Z,54.97
2022-07-29T05:02:28.736Z,54.78
2022-07-29T05:02:59.569Z,54.88
2022-07-29T05:03:30.268Z,54.88
2022-07-29T05:04:00.920Z,54.88
2022-07-29T05:04:31.685Z,54.97
2022-07-29T05:05:02.547Z,55.00
2022-07-29T05:05:33.631Z,54.97
2022-07-29T05:06:04.116Z,54.97
2022-07-29T05:06:35.309Z,54.97
2022-07-29T05:07:05.810Z,54.88
2022-07-29T05:07:36.719Z,54.97
2022-07-29T05:08:07.626Z,54.97
2022-07-29T05:08:38.601Z,55.08
2022-07-29T05:09:09.135Z,54.97
2022-07-29T05:09:40.219Z,54.97
2022-07-29T05:10:10.710Z,54.97
2022-07-29T05:10:41.624Z,54.97
2022-07-29T05:11:14.921Z,54.97
2022-07-29T05:11:43.397Z,55.00
2022-07-29T05:12:13.953Z,55.08
2022-07-29T05:12:44.616Z,55.08
2022-07-29T05:13:15.129Z,54.97
2022-07-29T05:13:47.115Z,54.97
2022-07-29T05:14:17.323Z,54.88
2022-07-29T05:14:47.897Z,54.97
2022-07-29T05:15:18.871Z,54.88
2022-07-29T05:15:50.216Z,54.88
2022-07-29T05:16:20.802Z,54.97
2022-07-29T05:16:51.478Z,54.88
2022-07-29T05:17:22.512Z,54.97
2022-07-29T05:17:53.004Z,54.85
2022-07-29T05:18:25.981Z,54.97
2022-07-29T05:18:54.672Z,54.97
2022-07-29T05:19:25.174Z,54.88
2022-07-29T05:19:56.192Z,54.88
2022-07-29T05:20:26.687Z,54.88
2022-07-29T05:20:57.689Z,54.88
2022-07-29T05:21:28.602Z,54.88
2022-07-29T05:21:59.680Z,54.97
2022-07-29T05:22:30.235Z,54.88
2022-07-29T05:23:00.749Z,54.78
2022-07-29T05:23:31.663Z,54.85
2022-07-29T05:24:02.579Z,54.88
2022-07-29T05:24:33.489Z,54.78
2022-07-29T05:25:08.965Z,54.85
2022-07-29T05:25:42.015Z,54.88
2022-07-29T05:26:05.935Z,54.85
2022-07-29T05:26:36.930Z,54.97
2022-07-29T05:27:08.063Z,54.88
2022-07-29T05:27:38.643Z,54.78
2022-07-29T05:28:09.076Z,54.88
2022-07-29T05:28:40.053Z,54.88
2022-07-29T05:29:44.462Z,54.88
2022-07-29T05:29:45.593Z,54.97
2022-07-29T05:30:12.844Z,54.97
2022-07-29T05:30:43.384Z,54.97
2022-07-29T05:31:13.878Z,54.88
2022-07-29T05:31:44.372Z,54.85
2022-07-29T05:32:14.855Z,54.88
2022-07-29T05:32:45.981Z,54.88
2022-07-29T05:33:35.463Z,54.88
2022-07-29T05:33:48.085Z,54.97
2022-07-29T05:34:18.003Z,54.88
2022-07-29T05:34:50.762Z,54.95
2022-07-29T05:35:19.104Z,54.88
2022-07-29T05:35:49.710Z,54.85
2022-07-29T05:36:20.250Z,54.88
2022-07-29T05:36:50.770Z,54.88
2022-07-29T05:37:21.358Z,54.95
2022-07-29T05:37:51.878Z,54.97
2022-07-29T05:38:22.407Z,54.95
2022-07-29T05:38:53.094Z,54.97
2022-07-29T05:39:47.392Z,54.97
2022-07-29T05:39:57.193Z,55.05
2022-07-29T05:40:25.548Z,55.08
2022-07-29T05:40:56.056Z,55.05
2022-07-29T05:41:26.600Z,55.05
2022-07-29T05:41:57.279Z,55.05
2022-07-29T05:42:27.802Z,55.05
2022-07-29T05:42:58.354Z,55.08
2022-07-29T05:43:28.861Z,55.08
2022-07-29T05:44:00.069Z,54.97
2022-07-29T05:44:30.569Z,54.97
2022-07-29T05:45:01.311Z,54.95
2022-07-29T05:45:31.831Z,54.95
2022-07-29T05:46:02.415Z,55.08
2022-07-29T05:46:33.091Z,54.97
2022-07-29T05:47:03.489Z,54.95
2022-07-29T05:47:34.591Z,54.95
2022-07-29T05:48:05.295Z,54.95
2022-07-29T05:48:35.830Z,54.95
2022-07-29T05:49:06.411Z,54.95
2022-07-29T05:49:36.945Z,54.85
2022-07-29T05:50:07.781Z,54.88
2022-07-29T05:50:38.279Z,54.97
2022-07-29T05:51:09.167Z,54.85
2022-07-29T05:51:40.080Z,54.85
2022-07-29T05:52:11.106Z,54.88
2022-07-29T05:52:41.562Z,54.88
2022-07-29T05:53:19.661Z,54.85
2022-07-29T05:53:44.599Z,54.85
2022-07-29T05:54:14.448Z,54.75
2022-07-29T05:54:44.740Z,54.75
2022-07-29T05:55:15.238Z,54.75
2022-07-29T05:55:46.232Z,54.85
2022-07-29T05:56:16.919Z,54.78
2022-07-29T05:56:47.422Z,54.85
2022-07-29T05:57:18.239Z,54.78
2022-07-29T05:57:49.167Z,54.78
2022-07-29T05:58:20.234Z,54.75
2022-07-29T05:58:50.739Z,54.65
2022-07-29T05:59:23.404Z,54.65
2022-07-29T05:59:52.522Z,54.65
2022-07-29T06:00:23.035Z,54.65
2022-07-29T06:00:53.536Z,54.65
2022-07-29T06:01:24.599Z,54.75
2022-07-29T06:01:55.202Z,54.75
2022-07-29T06:02:26.186Z,54.65
2022-07-29T06:02:56.694Z,54.65
2022-07-29T06:03:27.736Z,54.65
2022-07-29T06:03:58.265Z,54.65
2022-07-29T06:04:28.825Z,54.65
2022-07-29T06:04:59.350Z,54.65
2022-07-29T06:05:30.080Z,54.65
2022-07-29T06:06:00.563Z,54.65
2022-07-29T06:06:31.553Z,54.65
2022-07-29T06:07:02.071Z,54.65
2022-07-29T06:07:32.976Z,54.55
2022-07-29T06:08:03.882Z,54.65
2022-07-29T06:08:35.095Z,54.65
2022-07-29T06:09:12.117Z,54.55
2022-07-29T06:09:37.568Z,54.63
2022-07-29T06:10:07.107Z,54.65
2022-07-29T06:10:37.586Z,54.65
2022-07-29T06:11:08.257Z,54.65
2022-07-29T06:11:38.723Z,54.55
2022-07-29T06:12:09.636Z,54.55
2022-07-29T06:12:40.628Z,54.55
2022-07-29T06:13:11.638Z,54.65
2022-07-29T06:13:42.178Z,54.65
2022-07-29T06:14:13.058Z,54.65
2022-07-29T06:14:43.205Z,54.55
2022-07-29T06:15:13.831Z,54.65
2022-07-29T06:15:44.644Z,55.35
2022-07-29T06:16:15.772Z,55.55
2022-07-29T06:16:46.254Z,55.85
2022-07-29T06:17:16.810Z,55.65
2022-07-29T06:18:00.853Z,55.55
2022-07-29T06:18:19.677Z,55.85
2022-07-29T06:18:49.194Z,56.14
2022-07-29T06:19:19.842Z,56.14
2022-07-29T06:19:50.339Z,56.61
2022-07-29T06:20:27.010Z,56.64
2022-07-29T06:20:52.167Z,56.84
2022-07-29T06:21:22.654Z,57.73
2022-07-29T06:21:53.750Z,57.93
2022-07-29T06:22:24.257Z,58.03
2022-07-29T06:22:54.747Z,58.62
2022-07-29T06:23:25.647Z,58.73
2022-07-29T06:23:56.581Z,58.62
2022-07-29T06:24:27.528Z,58.43
2022-07-29T06:24:58.699Z,58.13
2022-07-29T06:25:29.274Z,58.33
2022-07-29T06:25:59.726Z,58.03
2022-07-29T06:26:32.628Z,58.13
2022-07-29T06:27:01.432Z,58.33
2022-07-29T06:27:32.358Z,58.33
2022-07-29T06:28:03.482Z,58.13
2022-07-29T06:28:33.975Z,58.33
2022-07-29T06:29:05.021Z,58.23
2022-07-29T06:29:35.506Z,58.33
2022-07-29T06:30:06.434Z,58.03
2022-07-29T06:30:37.518Z,58.23
2022-07-29T06:31:08.420Z,58.03
2022-07-29T06:31:39.073Z,58.03
2022-07-29T06:32:10.040Z,58.13
2022-07-29T06:32:43.244Z,58.13
2022-07-29T06:33:11.740Z,58.13
2022-07-29T06:33:42.746Z,58.03
2022-07-29T06:34:14.342Z,58.13
2022-07-29T06:34:46.287Z,57.64
2022-07-29T06:35:41.703Z,57.43
2022-07-29T06:35:53.216Z,57.11
2022-07-29T06:36:16.859Z,57.34
2022-07-29T06:36:47.622Z,57.53
2022-07-29T06:37:18.369Z,57.43
2022-07-29T06:37:49.265Z,57.34
2022-07-29T06:38:30.841Z,57.34